sensor_id;sensor_type;location;lat;lon;timestamp;P1;durP1;ratioP1;P2;durP2;ratioP2
18661;SDS011;61528;49.456;11.098;2023-03-05T00:01:15;26.77;;;15.40;;
18661;SDS011;61528;49.456;11.098;2023-03-05T00:03:42;29.27;;;15.70;;
18661;SDS011;61528;49.456;11.098;2023-03-05T00:06:09;27.53;;;14.67;;
18661;SDS011;61528;49.456;11.098;2023-03-05T00:08:35;28.60;;;14.67;;
18661;SDS011;61528;49.456;11.098;2023-03-05T00:11:03;32.93;;;15.53;;
18661;SDS011;61528;49.456;11.098;2023-03-05T00:13:29;29.47;;;15.73;;
18661;SDS011;61528;49.456;11.098;2023-03-05T00:15:56;32.87;;;16.03;;
18661;SDS011;61528;49.456;11.098;2023-03-05T00:18:23;30.50;;;14.60;;
18661;SDS011;61528;49.456;11.098;2023-03-05T00:20:49;33.23;;;16.37;;
18661;SDS011;61528;49.456;11.098;2023-03-05T00:23:16;30.03;;;15.73;;
18661;SDS011;61528;49.456;11.098;2023-03-05T00:25:42;32.33;;;16.43;;
18661;SDS011;61528;49.456;11.098;2023-03-05T00:28:10;32.93;;;16.03;;
18661;SDS011;61528;49.456;11.098;2023-03-05T00:30:36;29.10;;;15.80;;
18661;SDS011;61528;49.456;11.098;2023-03-05T00:33:02;30.63;;;15.70;;
18661;SDS011;61528;49.456;11.098;2023-03-05T00:35:29;33.23;;;16.13;;
18661;SDS011;61528;49.456;11.098;2023-03-05T00:37:55;30.63;;;16.03;;
18661;SDS011;61528;49.456;11.098;2023-03-05T00:40:21;30.57;;;15.70;;
18661;SDS011;61528;49.456;11.098;2023-03-05T00:42:48;31.03;;;15.20;;
18661;SDS011;61528;49.456;11.098;2023-03-05T00:45:15;31.70;;;16.27;;
18661;SDS011;61528;49.456;11.098;2023-03-05T00:47:41;34.27;;;16.07;;
18661;SDS011;61528;49.456;11.098;2023-03-05T00:50:07;30.60;;;16.33;;
18661;SDS011;61528;49.456;11.098;2023-03-05T00:52:34;35.77;;;17.67;;
18661;SDS011;61528;49.456;11.098;2023-03-05T00:55:00;30.67;;;17.00;;
18661;SDS011;61528;49.456;11.098;2023-03-05T00:57:26;38.20;;;18.03;;
18661;SDS011;61528;49.456;11.098;2023-03-05T00:59:54;36.87;;;17.00;;
18661;SDS011;61528;49.456;11.098;2023-03-05T01:02:20;35.57;;;17.10;;
18661;SDS011;61528;49.456;11.098;2023-03-05T01:04:47;32.63;;;17.30;;
18661;SDS011;61528;49.456;11.098;2023-03-05T01:07:13;37.03;;;17.63;;
18661;SDS011;61528;49.456;11.098;2023-03-05T01:09:40;37.23;;;17.60;;
18661;SDS011;61528;49.456;11.098;2023-03-05T01:12:06;33.93;;;16.80;;
18661;SDS011;61528;49.456;11.098;2023-03-05T01:14:32;34.43;;;17.00;;
18661;SDS011;61528;49.456;11.098;2023-03-05T01:17:00;38.43;;;18.13;;
18661;SDS011;61528;49.456;11.098;2023-03-05T01:19:26;35.93;;;17.07;;
18661;SDS011;61528;49.456;11.098;2023-03-05T01:21:53;35.60;;;18.23;;
18661;SDS011;61528;49.456;11.098;2023-03-05T01:24:19;33.37;;;17.60;;
18661;SDS011;61528;49.456;11.098;2023-03-05T01:26:45;33.23;;;17.23;;
18661;SDS011;61528;49.456;11.098;2023-03-05T01:29:13;34.07;;;17.57;;
18661;SDS011;61528;49.456;11.098;2023-03-05T01:31:42;36.43;;;16.97;;
18661;SDS011;61528;49.456;11.098;2023-03-05T01:34:08;36.37;;;18.53;;
18661;SDS011;61528;49.456;11.098;2023-03-05T01:36:35;32.10;;;16.43;;
18661;SDS011;61528;49.456;11.098;2023-03-05T01:39:01;29.17;;;16.17;;
18661;SDS011;61528;49.456;11.098;2023-03-05T01:41:27;32.97;;;17.17;;
18661;SDS011;61528;49.456;11.098;2023-03-05T01:43:54;34.77;;;17.97;;
18661;SDS011;61528;49.456;11.098;2023-03-05T01:49:01;36.33;;;17.93;;
18661;SDS011;61528;49.456;11.098;2023-03-05T01:51:29;31.00;;;16.50;;
18661;SDS011;61528;49.456;11.098;2023-03-05T01:53:56;32.77;;;16.20;;
18661;SDS011;61528;49.456;11.098;2023-03-05T01:56:23;34.43;;;17.53;;
18661;SDS011;61528;49.456;11.098;2023-03-05T01:58:50;37.17;;;16.83;;
18661;SDS011;61528;49.456;11.098;2023-03-05T02:01:17;35.50;;;17.33;;
18661;SDS011;61528;49.456;11.098;2023-03-05T02:03:43;40.23;;;17.20;;
18661;SDS011;61528;49.456;11.098;2023-03-05T02:06:10;30.13;;;16.23;;
18661;SDS011;61528;49.456;11.098;2023-03-05T02:08:36;30.27;;;15.90;;
18661;SDS011;61528;49.456;11.098;2023-03-05T02:11:02;34.43;;;16.73;;
18661;SDS011;61528;49.456;11.098;2023-03-05T02:13:30;35.70;;;17.43;;
18661;SDS011;61528;49.456;11.098;2023-03-05T02:15:57;33.73;;;17.00;;
18661;SDS011;61528;49.456;11.098;2023-03-05T02:18:24;32.53;;;17.13;;
18661;SDS011;61528;49.456;11.098;2023-03-05T02:20:52;32.33;;;16.60;;
18661;SDS011;61528;49.456;11.098;2023-03-05T02:23:19;35.83;;;16.10;;
18661;SDS011;61528;49.456;11.098;2023-03-05T02:25:46;34.13;;;16.87;;
18661;SDS011;61528;49.456;11.098;2023-03-05T02:28:22;33.93;;;17.03;;
18661;SDS011;61528;49.456;11.098;2023-03-05T02:30:49;36.90;;;16.60;;
18661;SDS011;61528;49.456;11.098;2023-03-05T02:33:16;37.97;;;17.90;;
18661;SDS011;61528;49.456;11.098;2023-03-05T02:35:43;33.07;;;16.73;;
18661;SDS011;61528;49.456;11.098;2023-03-05T02:38:12;36.17;;;16.80;;
18661;SDS011;61528;49.456;11.098;2023-03-05T02:40:39;36.57;;;16.40;;
18661;SDS011;61528;49.456;11.098;2023-03-05T02:43:05;31.57;;;16.47;;
18661;SDS011;61528;49.456;11.098;2023-03-05T02:45:32;26.53;;;15.17;;
18661;SDS011;61528;49.456;11.098;2023-03-05T02:47:58;31.67;;;15.13;;
18661;SDS011;61528;49.456;11.098;2023-03-05T02:50:25;32.73;;;16.50;;
18661;SDS011;61528;49.456;11.098;2023-03-05T02:52:51;34.27;;;15.37;;
18661;SDS011;61528;49.456;11.098;2023-03-05T02:55:18;32.50;;;15.73;;
18661;SDS011;61528;49.456;11.098;2023-03-05T02:57:44;29.63;;;14.27;;
18661;SDS011;61528;49.456;11.098;2023-03-05T03:00:10;27.10;;;13.77;;
18661;SDS011;61528;49.456;11.098;2023-03-05T03:02:37;26.53;;;13.73;;
18661;SDS011;61528;49.456;11.098;2023-03-05T03:05:03;29.03;;;14.43;;
18661;SDS011;61528;49.456;11.098;2023-03-05T03:07:29;26.80;;;13.70;;
18661;SDS011;61528;49.456;11.098;2023-03-05T03:09:56;22.73;;;11.83;;
18661;SDS011;61528;49.456;11.098;2023-03-05T03:12:22;28.70;;;13.30;;
18661;SDS011;61528;49.456;11.098;2023-03-05T03:14:48;24.67;;;13.23;;
18661;SDS011;61528;49.456;11.098;2023-03-05T03:17:15;27.30;;;12.37;;
18661;SDS011;61528;49.456;11.098;2023-03-05T03:19:42;27.43;;;12.83;;
18661;SDS011;61528;49.456;11.098;2023-03-05T03:22:08;24.83;;;12.10;;
18661;SDS011;61528;49.456;11.098;2023-03-05T03:24:38;25.37;;;12.53;;
18661;SDS011;61528;49.456;11.098;2023-03-05T03:27:05;20.83;;;12.00;;
18661;SDS011;61528;49.456;11.098;2023-03-05T03:29:32;23.47;;;10.90;;
18661;SDS011;61528;49.456;11.098;2023-03-05T03:31:58;23.67;;;12.30;;
18661;SDS011;61528;49.456;11.098;2023-03-05T03:34:25;24.40;;;11.60;;
18661;SDS011;61528;49.456;11.098;2023-03-05T03:36:51;22.40;;;11.00;;
18661;SDS011;61528;49.456;11.098;2023-03-05T03:39:18;20.70;;;11.63;;
18661;SDS011;61528;49.456;11.098;2023-03-05T03:41:46;21.53;;;10.70;;
18661;SDS011;61528;49.456;11.098;2023-03-05T03:44:13;21.53;;;10.50;;
18661;SDS011;61528;49.456;11.098;2023-03-05T03:46:41;24.50;;;11.87;;
18661;SDS011;61528;49.456;11.098;2023-03-05T03:49:14;23.03;;;11.27;;
18661;SDS011;61528;49.456;11.098;2023-03-05T03:51:41;22.33;;;10.27;;
18661;SDS011;61528;49.456;11.098;2023-03-05T03:54:07;20.23;;;10.37;;
18661;SDS011;61528;49.456;11.098;2023-03-05T03:56:33;21.20;;;10.27;;
18661;SDS011;61528;49.456;11.098;2023-03-05T03:59:00;20.63;;;11.33;;
18661;SDS011;61528;49.456;11.098;2023-03-05T04:01:26;20.93;;;10.23;;
18661;SDS011;61528;49.456;11.098;2023-03-05T04:03:52;19.97;;;10.50;;
18661;SDS011;61528;49.456;11.098;2023-03-05T04:06:19;22.40;;;10.47;;
18661;SDS011;61528;49.456;11.098;2023-03-05T04:08:45;21.67;;;10.77;;
18661;SDS011;61528;49.456;11.098;2023-03-05T04:11:11;23.20;;;10.80;;
18661;SDS011;61528;49.456;11.098;2023-03-05T04:13:38;21.40;;;12.10;;
18661;SDS011;61528;49.456;11.098;2023-03-05T04:16:05;22.20;;;11.20;;
18661;SDS011;61528;49.456;11.098;2023-03-05T04:18:31;23.77;;;11.53;;
18661;SDS011;61528;49.456;11.098;2023-03-05T04:20:57;22.40;;;11.90;;
18661;SDS011;61528;49.456;11.098;2023-03-05T04:23:24;28.40;;;11.93;;
18661;SDS011;61528;49.456;11.098;2023-03-05T04:25:50;23.70;;;11.97;;
18661;SDS011;61528;49.456;11.098;2023-03-05T04:28:16;23.37;;;11.37;;
18661;SDS011;61528;49.456;11.098;2023-03-05T04:30:42;23.33;;;11.30;;
18661;SDS011;61528;49.456;11.098;2023-03-05T04:33:09;21.77;;;11.37;;
18661;SDS011;61528;49.456;11.098;2023-03-05T04:35:35;26.80;;;13.13;;
18661;SDS011;61528;49.456;11.098;2023-03-05T04:38:02;26.63;;;12.90;;
18661;SDS011;61528;49.456;11.098;2023-03-05T04:40:29;29.53;;;13.87;;
18661;SDS011;61528;49.456;11.098;2023-03-05T04:42:55;27.70;;;14.23;;
18661;SDS011;61528;49.456;11.098;2023-03-05T04:45:21;25.50;;;13.70;;
18661;SDS011;61528;49.456;11.098;2023-03-05T04:47:48;28.67;;;14.67;;
18661;SDS011;61528;49.456;11.098;2023-03-05T04:50:14;30.40;;;14.33;;
18661;SDS011;61528;49.456;11.098;2023-03-05T04:52:41;30.50;;;14.33;;
18661;SDS011;61528;49.456;11.098;2023-03-05T04:55:08;31.83;;;13.77;;
18661;SDS011;61528;49.456;11.098;2023-03-05T04:57:35;30.03;;;15.13;;
18661;SDS011;61528;49.456;11.098;2023-03-05T05:00:02;32.77;;;15.83;;
18661;SDS011;61528;49.456;11.098;2023-03-05T05:02:31;27.20;;;14.53;;
18661;SDS011;61528;49.456;11.098;2023-03-05T05:04:57;32.00;;;15.07;;
18661;SDS011;61528;49.456;11.098;2023-03-05T05:07:24;34.77;;;16.47;;
18661;SDS011;61528;49.456;11.098;2023-03-05T05:09:50;35.57;;;16.87;;
18661;SDS011;61528;49.456;11.098;2023-03-05T05:12:16;34.37;;;15.83;;
18661;SDS011;61528;49.456;11.098;2023-03-05T05:14:42;34.97;;;17.43;;
18661;SDS011;61528;49.456;11.098;2023-03-05T05:17:09;36.23;;;16.87;;
18661;SDS011;61528;49.456;11.098;2023-03-05T05:19:35;34.17;;;17.13;;
18661;SDS011;61528;49.456;11.098;2023-03-05T05:22:01;35.87;;;16.93;;
18661;SDS011;61528;49.456;11.098;2023-03-05T05:24:27;38.70;;;17.87;;
18661;SDS011;61528;49.456;11.098;2023-03-05T05:26:54;42.33;;;17.30;;
18661;SDS011;61528;49.456;11.098;2023-03-05T05:29:20;41.73;;;17.63;;
18661;SDS011;61528;49.456;11.098;2023-03-05T05:31:46;36.23;;;17.23;;
18661;SDS011;61528;49.456;11.098;2023-03-05T05:34:13;38.50;;;17.83;;
18661;SDS011;61528;49.456;11.098;2023-03-05T05:36:39;36.17;;;16.47;;
18661;SDS011;61528;49.456;11.098;2023-03-05T05:39:05;33.93;;;16.83;;
18661;SDS011;61528;49.456;11.098;2023-03-05T05:41:32;36.90;;;16.57;;
18661;SDS011;61528;49.456;11.098;2023-03-05T05:43:58;35.00;;;16.73;;
18661;SDS011;61528;49.456;11.098;2023-03-05T05:46:24;38.30;;;17.33;;
18661;SDS011;61528;49.456;11.098;2023-03-05T05:48:51;35.43;;;16.93;;
18661;SDS011;61528;49.456;11.098;2023-03-05T05:51:19;36.70;;;16.30;;
18661;SDS011;61528;49.456;11.098;2023-03-05T05:53:45;34.70;;;17.33;;
18661;SDS011;61528;49.456;11.098;2023-03-05T05:56:12;33.13;;;17.47;;
18661;SDS011;61528;49.456;11.098;2023-03-05T05:58:40;36.90;;;17.10;;
18661;SDS011;61528;49.456;11.098;2023-03-05T06:01:26;38.57;;;17.50;;
18661;SDS011;61528;49.456;11.098;2023-03-05T06:03:53;39.47;;;17.33;;
18661;SDS011;61528;49.456;11.098;2023-03-05T06:06:20;34.10;;;16.20;;
18661;SDS011;61528;49.456;11.098;2023-03-05T06:08:47;35.67;;;18.20;;
18661;SDS011;61528;49.456;11.098;2023-03-05T06:11:14;35.83;;;17.30;;
18661;SDS011;61528;49.456;11.098;2023-03-05T06:13:40;42.73;;;18.90;;
18661;SDS011;61528;49.456;11.098;2023-03-05T06:16:08;40.00;;;18.83;;
18661;SDS011;61528;49.456;11.098;2023-03-05T06:18:35;34.43;;;17.63;;
18661;SDS011;61528;49.456;11.098;2023-03-05T06:21:05;38.73;;;18.03;;
18661;SDS011;61528;49.456;11.098;2023-03-05T06:23:32;37.43;;;19.23;;
18661;SDS011;61528;49.456;11.098;2023-03-05T06:25:59;38.77;;;19.43;;
18661;SDS011;61528;49.456;11.098;2023-03-05T06:28:26;40.43;;;17.97;;
18661;SDS011;61528;49.456;11.098;2023-03-05T06:30:59;34.33;;;17.47;;
18661;SDS011;61528;49.456;11.098;2023-03-05T06:33:26;37.20;;;17.97;;
18661;SDS011;61528;49.456;11.098;2023-03-05T06:35:52;37.90;;;16.83;;
18661;SDS011;61528;49.456;11.098;2023-03-05T06:38:18;35.47;;;18.17;;
18661;SDS011;61528;49.456;11.098;2023-03-05T06:40:45;41.57;;;19.10;;
18661;SDS011;61528;49.456;11.098;2023-03-05T06:43:12;36.53;;;17.13;;
18661;SDS011;61528;49.456;11.098;2023-03-05T06:45:38;40.27;;;17.93;;
18661;SDS011;61528;49.456;11.098;2023-03-05T06:48:04;37.47;;;17.40;;
18661;SDS011;61528;49.456;11.098;2023-03-05T06:50:33;38.50;;;17.03;;
18661;SDS011;61528;49.456;11.098;2023-03-05T06:52:59;37.67;;;17.50;;
18661;SDS011;61528;49.456;11.098;2023-03-05T06:55:25;36.30;;;17.63;;
18661;SDS011;61528;49.456;11.098;2023-03-05T06:57:52;38.17;;;18.17;;
18661;SDS011;61528;49.456;11.098;2023-03-05T07:00:18;33.10;;;17.07;;
18661;SDS011;61528;49.456;11.098;2023-03-05T07:02:44;38.20;;;18.20;;
18661;SDS011;61528;49.456;11.098;2023-03-05T07:05:10;36.83;;;17.30;;
18661;SDS011;61528;49.456;11.098;2023-03-05T07:07:37;36.93;;;17.10;;
18661;SDS011;61528;49.456;11.098;2023-03-05T07:10:03;35.73;;;17.10;;
18661;SDS011;61528;49.456;11.098;2023-03-05T07:12:32;43.70;;;19.30;;
18661;SDS011;61528;49.456;11.098;2023-03-05T07:14:58;33.23;;;17.23;;
18661;SDS011;61528;49.456;11.098;2023-03-05T07:17:25;31.80;;;16.77;;
18661;SDS011;61528;49.456;11.098;2023-03-05T07:19:51;39.80;;;17.63;;
18661;SDS011;61528;49.456;11.098;2023-03-05T07:22:18;41.37;;;18.77;;
18661;SDS011;61528;49.456;11.098;2023-03-05T07:24:44;43.00;;;19.50;;
18661;SDS011;61528;49.456;11.098;2023-03-05T07:27:10;42.63;;;18.23;;
18661;SDS011;61528;49.456;11.098;2023-03-05T07:29:37;34.90;;;17.73;;
18661;SDS011;61528;49.456;11.098;2023-03-05T07:32:03;37.83;;;16.90;;
18661;SDS011;61528;49.456;11.098;2023-03-05T07:34:30;40.50;;;17.37;;
18661;SDS011;61528;49.456;11.098;2023-03-05T07:36:56;33.63;;;16.77;;
18661;SDS011;61528;49.456;11.098;2023-03-05T07:39:22;35.40;;;16.73;;
18661;SDS011;61528;49.456;11.098;2023-03-05T07:41:49;36.43;;;16.53;;
18661;SDS011;61528;49.456;11.098;2023-03-05T07:44:16;35.23;;;17.03;;
18661;SDS011;61528;49.456;11.098;2023-03-05T07:46:44;39.30;;;17.30;;
18661;SDS011;61528;49.456;11.098;2023-03-05T07:49:11;37.20;;;16.93;;
18661;SDS011;61528;49.456;11.098;2023-03-05T07:51:38;36.00;;;15.93;;
18661;SDS011;61528;49.456;11.098;2023-03-05T07:54:05;35.80;;;16.67;;
18661;SDS011;61528;49.456;11.098;2023-03-05T07:56:33;35.73;;;16.87;;
18661;SDS011;61528;49.456;11.098;2023-03-05T07:59:00;32.47;;;15.63;;
18661;SDS011;61528;49.456;11.098;2023-03-05T08:01:28;32.30;;;15.40;;
18661;SDS011;61528;49.456;11.098;2023-03-05T08:03:54;27.53;;;13.50;;
18661;SDS011;61528;49.456;11.098;2023-03-05T08:06:20;27.83;;;14.03;;
18661;SDS011;61528;49.456;11.098;2023-03-05T08:08:47;29.83;;;15.03;;
18661;SDS011;61528;49.456;11.098;2023-03-05T08:11:14;32.47;;;14.97;;
18661;SDS011;61528;49.456;11.098;2023-03-05T08:13:41;31.73;;;14.07;;
18661;SDS011;61528;49.456;11.098;2023-03-05T08:16:08;27.27;;;13.50;;
18661;SDS011;61528;49.456;11.098;2023-03-05T08:18:35;28.67;;;13.37;;
18661;SDS011;61528;49.456;11.098;2023-03-05T08:21:02;26.70;;;12.33;;
18661;SDS011;61528;49.456;11.098;2023-03-05T08:23:29;21.37;;;9.87;;
18661;SDS011;61528;49.456;11.098;2023-03-05T08:25:55;22.63;;;10.80;;
18661;SDS011;61528;49.456;11.098;2023-03-05T08:28:22;20.60;;;10.13;;
18661;SDS011;61528;49.456;11.098;2023-03-05T08:30:48;21.93;;;11.00;;
18661;SDS011;61528;49.456;11.098;2023-03-05T08:33:15;23.50;;;10.60;;
18661;SDS011;61528;49.456;11.098;2023-03-05T08:35:42;23.03;;;9.60;;
18661;SDS011;61528;49.456;11.098;2023-03-05T08:38:08;18.17;;;9.50;;
18661;SDS011;61528;49.456;11.098;2023-03-05T08:40:34;18.77;;;8.47;;
18661;SDS011;61528;49.456;11.098;2023-03-05T08:43:01;14.43;;;8.70;;
18661;SDS011;61528;49.456;11.098;2023-03-05T08:45:29;16.30;;;8.40;;
18661;SDS011;61528;49.456;11.098;2023-03-05T08:47:56;15.57;;;8.20;;
18661;SDS011;61528;49.456;11.098;2023-03-05T08:50:22;13.57;;;7.63;;
18661;SDS011;61528;49.456;11.098;2023-03-05T08:52:50;14.83;;;7.57;;
18661;SDS011;61528;49.456;11.098;2023-03-05T08:55:16;14.87;;;8.00;;
18661;SDS011;61528;49.456;11.098;2023-03-05T08:57:42;15.03;;;7.90;;
18661;SDS011;61528;49.456;11.098;2023-03-05T09:00:09;13.77;;;7.17;;
18661;SDS011;61528;49.456;11.098;2023-03-05T09:02:36;15.70;;;7.37;;
18661;SDS011;61528;49.456;11.098;2023-03-05T09:05:02;15.80;;;8.93;;
18661;SDS011;61528;49.456;11.098;2023-03-05T09:07:29;10.47;;;6.63;;
18661;SDS011;61528;49.456;11.098;2023-03-05T09:09:55;22.10;;;11.83;;
18661;SDS011;61528;49.456;11.098;2023-03-05T09:12:21;21.97;;;11.83;;
18661;SDS011;61528;49.456;11.098;2023-03-05T09:14:47;12.40;;;8.07;;
18661;SDS011;61528;49.456;11.098;2023-03-05T09:17:13;14.47;;;8.10;;
18661;SDS011;61528;49.456;11.098;2023-03-05T09:19:40;11.33;;;6.57;;
18661;SDS011;61528;49.456;11.098;2023-03-05T09:22:06;11.17;;;4.97;;
18661;SDS011;61528;49.456;11.098;2023-03-05T09:24:32;9.33;;;5.73;;
18661;SDS011;61528;49.456;11.098;2023-03-05T09:26:59;10.10;;;5.50;;
18661;SDS011;61528;49.456;11.098;2023-03-05T09:29:25;12.63;;;6.63;;
18661;SDS011;61528;49.456;11.098;2023-03-05T09:31:52;11.73;;;6.23;;
18661;SDS011;61528;49.456;11.098;2023-03-05T09:34:18;9.77;;;5.80;;
18661;SDS011;61528;49.456;11.098;2023-03-05T09:36:45;9.77;;;5.40;;
18661;SDS011;61528;49.456;11.098;2023-03-05T09:39:11;8.57;;;5.03;;
18661;SDS011;61528;49.456;11.098;2023-03-05T09:41:54;10.70;;;5.13;;
18661;SDS011;61528;49.456;11.098;2023-03-05T09:47:14;9.43;;;6.00;;
18661;SDS011;61528;49.456;11.098;2023-03-05T09:49:58;9.10;;;4.70;;
18661;SDS011;61528;49.456;11.098;2023-03-05T09:52:46;14.10;;;6.70;;
18661;SDS011;61528;49.456;11.098;2023-03-05T09:55:13;9.17;;;5.20;;
18661;SDS011;61528;49.456;11.098;2023-03-05T09:57:44;8.60;;;4.77;;
18661;SDS011;61528;49.456;11.098;2023-03-05T10:00:32;10.57;;;5.20;;
18661;SDS011;61528;49.456;11.098;2023-03-05T10:02:59;9.83;;;4.90;;
18661;SDS011;61528;49.456;11.098;2023-03-05T10:05:42;9.67;;;5.63;;
18661;SDS011;61528;49.456;11.098;2023-03-05T10:08:10;11.50;;;5.13;;
18661;SDS011;61528;49.456;11.098;2023-03-05T10:10:42;10.73;;;4.13;;
18661;SDS011;61528;49.456;11.098;2023-03-05T10:13:20;8.03;;;4.80;;
18661;SDS011;61528;49.456;11.098;2023-03-05T10:15:57;7.43;;;4.20;;
18661;SDS011;61528;49.456;11.098;2023-03-05T10:23:55;4.83;;;3.40;;
18661;SDS011;61528;49.456;11.098;2023-03-05T10:26:35;7.33;;;2.47;;
18661;SDS011;61528;49.456;11.098;2023-03-05T10:31:55;6.00;;;2.50;;
18661;SDS011;61528;49.456;11.098;2023-03-05T10:48:02;4.33;;;2.03;;
18661;SDS011;61528;49.456;11.098;2023-03-05T10:50:35;6.97;;;3.53;;
18661;SDS011;61528;49.456;11.098;2023-03-05T10:53:06;5.47;;;3.17;;
18661;SDS011;61528;49.456;11.098;2023-03-05T10:55:38;8.13;;;2.90;;
18661;SDS011;61528;49.456;11.098;2023-03-05T10:58:12;5.73;;;2.10;;
18661;SDS011;61528;49.456;11.098;2023-03-05T11:00:39;3.43;;;2.37;;
18661;SDS011;61528;49.456;11.098;2023-03-05T11:03:08;5.83;;;2.87;;
18661;SDS011;61528;49.456;11.098;2023-03-05T11:05:38;5.17;;;2.33;;
18661;SDS011;61528;49.456;11.098;2023-03-05T11:08:20;5.33;;;2.30;;
18661;SDS011;61528;49.456;11.098;2023-03-05T11:10:49;5.53;;;3.10;;
18661;SDS011;61528;49.456;11.098;2023-03-05T11:13:27;6.23;;;3.13;;
18661;SDS011;61528;49.456;11.098;2023-03-05T11:16:03;5.50;;;2.40;;
18661;SDS011;61528;49.456;11.098;2023-03-05T11:18:30;6.77;;;3.17;;
18661;SDS011;61528;49.456;11.098;2023-03-05T11:21:09;4.40;;;2.13;;
18661;SDS011;61528;49.456;11.098;2023-03-05T11:23:35;5.37;;;2.40;;
18661;SDS011;61528;49.456;11.098;2023-03-05T11:28:38;6.03;;;2.77;;
18661;SDS011;61528;49.456;11.098;2023-03-05T11:33:54;4.90;;;2.50;;
18661;SDS011;61528;49.456;11.098;2023-03-05T11:36:28;6.77;;;2.33;;
18661;SDS011;61528;49.456;11.098;2023-03-05T11:41:38;2.93;;;1.90;;
18661;SDS011;61528;49.456;11.098;2023-03-05T11:44:15;4.43;;;2.37;;
18661;SDS011;61528;49.456;11.098;2023-03-05T11:46:43;4.93;;;2.20;;
18661;SDS011;61528;49.456;11.098;2023-03-05T11:49:13;6.17;;;2.37;;
18661;SDS011;61528;49.456;11.098;2023-03-05T11:51:42;7.03;;;2.10;;
18661;SDS011;61528;49.456;11.098;2023-03-05T11:54:15;4.87;;;2.10;;
18661;SDS011;61528;49.456;11.098;2023-03-05T11:56:43;5.20;;;2.00;;
18661;SDS011;61528;49.456;11.098;2023-03-05T11:59:13;4.07;;;1.70;;
18661;SDS011;61528;49.456;11.098;2023-03-05T12:01:41;3.70;;;1.80;;
18661;SDS011;61528;49.456;11.098;2023-03-05T12:04:08;2.87;;;1.67;;
18661;SDS011;61528;49.456;11.098;2023-03-05T12:06:42;2.10;;;1.67;;
18661;SDS011;61528;49.456;11.098;2023-03-05T12:09:14;8.17;;;4.67;;
18661;SDS011;61528;49.456;11.098;2023-03-05T12:11:43;3.57;;;2.33;;
18661;SDS011;61528;49.456;11.098;2023-03-05T12:14:16;3.70;;;1.80;;
18661;SDS011;61528;49.456;11.098;2023-03-05T12:16:57;2.13;;;1.60;;
18661;SDS011;61528;49.456;11.098;2023-03-05T12:21:57;3.13;;;1.80;;
18661;SDS011;61528;49.456;11.098;2023-03-05T12:29:43;3.30;;;1.80;;
18661;SDS011;61528;49.456;11.098;2023-03-05T12:47:41;4.07;;;1.73;;
18661;SDS011;61528;49.456;11.098;2023-03-05T12:58:36;4.63;;;2.60;;
18661;SDS011;61528;49.456;11.098;2023-03-05T13:03:42;33.03;;;13.60;;
18661;SDS011;61528;49.456;11.098;2023-03-05T13:06:32;3.40;;;2.50;;
18661;SDS011;61528;49.456;11.098;2023-03-05T13:08:59;3.37;;;2.30;;
18661;SDS011;61528;49.456;11.098;2023-03-05T13:11:26;2.67;;;2.13;;
18661;SDS011;61528;49.456;11.098;2023-03-05T13:13:53;2.87;;;1.97;;
18661;SDS011;61528;49.456;11.098;2023-03-05T13:21:36;2.57;;;1.63;;
18661;SDS011;61528;49.456;11.098;2023-03-05T13:24:12;6.03;;;1.80;;
18661;SDS011;61528;49.456;11.098;2023-03-05T13:26:40;2.40;;;1.67;;
18661;SDS011;61528;49.456;11.098;2023-03-05T13:29:11;3.37;;;2.40;;
18661;SDS011;61528;49.456;11.098;2023-03-05T13:31:47;4.73;;;2.30;;
18661;SDS011;61528;49.456;11.098;2023-03-05T13:34:18;6.93;;;5.07;;
18661;SDS011;61528;49.456;11.098;2023-03-05T13:36:47;3.87;;;2.67;;
18661;SDS011;61528;49.456;11.098;2023-03-05T13:39:22;3.87;;;2.03;;
18661;SDS011;61528;49.456;11.098;2023-03-05T13:41:54;3.67;;;2.13;;
18661;SDS011;61528;49.456;11.098;2023-03-05T13:44:21;3.93;;;1.80;;
18661;SDS011;61528;49.456;11.098;2023-03-05T13:46:47;2.10;;;1.70;;
18661;SDS011;61528;49.456;11.098;2023-03-05T13:49:23;2.20;;;1.90;;
18661;SDS011;61528;49.456;11.098;2023-03-05T13:51:54;4.80;;;2.20;;
18661;SDS011;61528;49.456;11.098;2023-03-05T13:54:21;3.43;;;2.00;;
18661;SDS011;61528;49.456;11.098;2023-03-05T13:59:19;3.90;;;2.10;;
18661;SDS011;61528;49.456;11.098;2023-03-05T14:01:46;3.77;;;2.43;;
18661;SDS011;61528;49.456;11.098;2023-03-05T14:09:22;2.77;;;2.17;;
18661;SDS011;61528;49.456;11.098;2023-03-05T14:11:55;4.90;;;2.37;;
18661;SDS011;61528;49.456;11.098;2023-03-05T14:14:22;5.23;;;2.50;;
18661;SDS011;61528;49.456;11.098;2023-03-05T14:16:49;2.83;;;2.17;;
18661;SDS011;61528;49.456;11.098;2023-03-05T14:19:36;2.77;;;1.90;;
18661;SDS011;61528;49.456;11.098;2023-03-05T14:22:03;3.80;;;2.50;;
18661;SDS011;61528;49.456;11.098;2023-03-05T14:24:30;4.83;;;2.43;;
18661;SDS011;61528;49.456;11.098;2023-03-05T14:26:58;2.43;;;2.23;;
18661;SDS011;61528;49.456;11.098;2023-03-05T14:29:27;4.03;;;2.73;;
18661;SDS011;61528;49.456;11.098;2023-03-05T14:36:52;5.20;;;2.17;;
18661;SDS011;61528;49.456;11.098;2023-03-05T14:39:26;3.50;;;2.60;;
18661;SDS011;61528;49.456;11.098;2023-03-05T14:41:54;4.77;;;2.60;;
18661;SDS011;61528;49.456;11.098;2023-03-05T14:44:20;5.03;;;2.70;;
18661;SDS011;61528;49.456;11.098;2023-03-05T14:46:49;5.50;;;2.60;;
18661;SDS011;61528;49.456;11.098;2023-03-05T14:49:16;5.13;;;2.90;;
18661;SDS011;61528;49.456;11.098;2023-03-05T14:51:43;4.33;;;2.70;;
18661;SDS011;61528;49.456;11.098;2023-03-05T14:54:17;4.03;;;2.70;;
18661;SDS011;61528;49.456;11.098;2023-03-05T14:56:44;3.73;;;2.50;;
18661;SDS011;61528;49.456;11.098;2023-03-05T14:59:12;4.53;;;2.73;;
18661;SDS011;61528;49.456;11.098;2023-03-05T15:01:38;4.87;;;2.80;;
18661;SDS011;61528;49.456;11.098;2023-03-05T15:04:04;4.30;;;2.70;;
18661;SDS011;61528;49.456;11.098;2023-03-05T15:06:31;4.93;;;2.97;;
18661;SDS011;61528;49.456;11.098;2023-03-05T15:08:59;4.43;;;2.90;;
18661;SDS011;61528;49.456;11.098;2023-03-05T15:11:25;5.00;;;2.60;;
18661;SDS011;61528;49.456;11.098;2023-03-05T15:13:52;5.77;;;4.73;;
18661;SDS011;61528;49.456;11.098;2023-03-05T15:16:18;6.60;;;4.50;;
18661;SDS011;61528;49.456;11.098;2023-03-05T15:18:45;5.00;;;3.07;;
18661;SDS011;61528;49.456;11.098;2023-03-05T15:21:11;6.30;;;3.10;;
18661;SDS011;61528;49.456;11.098;2023-03-05T15:23:37;7.47;;;3.50;;
18661;SDS011;61528;49.456;11.098;2023-03-05T15:26:04;5.93;;;2.87;;
18661;SDS011;61528;49.456;11.098;2023-03-05T15:28:32;5.20;;;3.80;;
18661;SDS011;61528;49.456;11.098;2023-03-05T15:30:59;6.30;;;3.23;;
18661;SDS011;61528;49.456;11.098;2023-03-05T15:33:25;6.60;;;3.60;;
18661;SDS011;61528;49.456;11.098;2023-03-05T15:35:52;6.03;;;3.30;;
18661;SDS011;61528;49.456;11.098;2023-03-05T15:38:18;6.00;;;3.47;;
18661;SDS011;61528;49.456;11.098;2023-03-05T15:40:44;7.37;;;3.73;;
18661;SDS011;61528;49.456;11.098;2023-03-05T15:43:11;7.00;;;4.10;;
18661;SDS011;61528;49.456;11.098;2023-03-05T15:45:37;6.53;;;4.17;;
18661;SDS011;61528;49.456;11.098;2023-03-05T15:48:04;11.23;;;5.50;;
18661;SDS011;61528;49.456;11.098;2023-03-05T15:50:30;6.20;;;3.80;;